createdAt,value
2023-03-16T00:01:24.018Z,31.80
2023-03-16T00:03:55.089Z,31.60
2023-03-16T00:06:25.718Z,33.10
2023-03-16T00:08:58.508Z,35.10
2023-03-16T00:11:27.087Z,33.60
2023-03-16T00:13:55.676Z,25.30
2023-03-16T00:16:24.564Z,27.10
2023-03-16T00:18:53.509Z,29.40
2023-03-16T00:21:22.257Z,32.60
2023-03-16T00:23:52.992Z,29.80
2023-03-16T00:26:22.342Z,34.40
2023-03-16T00:28:53.772Z,31.40
2023-03-16T00:31:24.557Z,33.10
2023-03-16T00:33:56.617Z,31.50
2023-03-16T00:36:28.516Z,32.50
2023-03-16T00:38:59.580Z,34.10
2023-03-16T00:41:28.273Z,24.10
2023-03-16T00:43:59.106Z,33.70
2023-03-16T00:46:27.730Z,30.50
2023-03-16T00:48:57.647Z,22.40
2023-03-16T00:51:26.336Z,28.50
2023-03-16T00:53:58.383Z,27.60
2023-03-16T00:56:27.097Z,22.90
2023-03-16T00:58:57.187Z,24.60
2023-03-16T01:01:26.947Z,23.80
2023-03-16T01:03:57.152Z,24.90
2023-03-16T01:06:27.248Z,30.00
2023-03-16T01:08:56.158Z,30.10
2023-03-16T01:11:28.763Z,26.70
2023-03-16T01:13:57.455Z,23.80
2023-03-16T01:16:28.944Z,30.40
2023-03-16T01:18:57.574Z,24.60
2023-03-16T01:21:26.760Z,26.40
2023-03-16T01:23:58.310Z,27.00
2023-03-16T01:26:29.550Z,26.10
2023-03-16T01:28:58.503Z,24.80
2023-03-16T01:31:31.327Z,25.30
2023-03-16T01:34:03.553Z,23.70
2023-03-16T01:36:35.157Z,28.30
2023-03-16T01:39:08.440Z,21.40
2023-03-16T01:41:42.945Z,25.40
2023-03-16T01:44:16.734Z,23.40
2023-03-16T01:46:45.948Z,27.90
2023-03-16T01:49:24.554Z,32.10
2023-03-16T01:52:00.349Z,32.90
2023-03-16T01:54:35.779Z,24.70
2023-03-16T01:57:08.467Z,28.70
2023-03-16T01:59:42.890Z,20.40
2023-03-16T02:02:13.441Z,28.10
2023-03-16T02:04:50.755Z,32.20
2023-03-16T02:09:57.548Z,26.80
2023-03-16T02:12:27.383Z,25.90
2023-03-16T02:14:57.135Z,27.30
2023-03-16T02:17:29.166Z,24.90
2023-03-16T02:20:15.188Z,20.10
2023-03-16T02:22:47.469Z,22.70
2023-03-16T02:25:18.638Z,25.90
2023-03-16T02:27:55.926Z,23.60
2023-03-16T02:30:26.461Z,24.40
2023-03-16T02:33:06.071Z,24.10
2023-03-16T02:35:35.938Z,25.50
2023-03-16T02:38:08.439Z,25.20
2023-03-16T02:40:43.445Z,23.00
2023-03-16T02:43:15.790Z,26.20
2023-03-16T02:45:54.213Z,27.40
2023-03-16T02:48:29.719Z,30.10
2023-03-16T02:50:59.344Z,27.80
2023-03-16T02:53:29.275Z,23.60
2023-03-16T02:56:04.048Z,31.00
2023-03-16T02:58:37.153Z,34.10
2023-03-16T03:01:14.087Z,21.50
2023-03-16T03:03:45.496Z,23.40
2023-03-16T03:06:21.899Z,24.90
2023-03-16T03:08:52.079Z,30.10
2023-03-16T03:11:21.380Z,30.00
2023-03-16T03:13:50.923Z,27.60
2023-03-16T03:16:23.788Z,30.50
2023-03-16T03:18:54.214Z,35.80
2023-03-16T03:21:24.127Z,30.60
2023-03-16T03:23:54.353Z,32.50
2023-03-16T03:26:24.244Z,34.40
2023-03-16T03:28:53.763Z,32.50
2023-03-16T03:31:28.934Z,30.80
2023-03-16T03:34:06.020Z,32.40
2023-03-16T03:36:36.525Z,33.30
2023-03-16T03:39:07.077Z,30.20
2023-03-16T03:41:36.330Z,33.50
2023-03-16T03:44:10.569Z,33.20
2023-03-16T03:46:40.611Z,32.30
2023-03-16T03:49:11.396Z,29.80
2023-03-16T03:51:40.953Z,35.50
2023-03-16T03:54:17.420Z,32.90
2023-03-16T03:56:57.270Z,34.90
2023-03-16T03:59:27.888Z,39.70
2023-03-16T04:02:09.389Z,34.70
2023-03-16T04:04:44.301Z,33.80
2023-03-16T04:07:14.176Z,34.10
2023-03-16T04:09:44.722Z,28.20
2023-03-16T04:12:21.786Z,30.10
2023-03-16T04:14:51.077Z,32.10
2023-03-16T04:17:20.590Z,29.20
2023-03-16T04:19:49.807Z,25.10
2023-03-16T04:22:18.927Z,27.80
2023-03-16T04:24:48.573Z,31.20
2023-03-16T04:27:17.835Z,29.50
2023-03-16T04:29:47.845Z,27.20
2023-03-16T04:32:16.622Z,24.70
2023-03-16T04:34:47.868Z,32.70
2023-03-16T04:37:17.134Z,30.50
2023-03-16T04:39:46.516Z,28.30
2023-03-16T04:42:16.112Z,28.90
2023-03-16T04:44:45.771Z,44.60
2023-03-16T04:47:20.503Z,39.80
2023-03-16T04:49:51.166Z,37.30
2023-03-16T04:52:20.633Z,26.60
2023-03-16T04:54:51.617Z,34.00
2023-03-16T04:57:21.029Z,32.20
2023-03-16T04:59:53.797Z,32.60
2023-03-16T05:02:39.583Z,29.50
2023-03-16T05:05:10.350Z,27.80
2023-03-16T05:07:47.460Z,35.00
2023-03-16T05:10:18.775Z,27.30
2023-03-16T05:12:49.160Z,33.90
2023-03-16T05:15:18.161Z,33.40
2023-03-16T05:17:56.256Z,25.30
2023-03-16T06:48:17.157Z,40.50
2023-03-16T06:50:46.527Z,33.40
2023-03-16T06:53:15.832Z,31.00
2023-03-16T06:55:44.468Z,29.20
2023-03-16T06:58:14.044Z,37.30
2023-03-16T07:00:42.776Z,24.70
2023-03-16T07:03:12.307Z,31.00
2023-03-16T07:05:41.369Z,37.50
2023-03-16T07:08:11.493Z,40.50
2023-03-16T07:10:40.285Z,38.50
2023-03-16T07:13:08.948Z,39.60
2023-03-16T07:15:37.535Z,38.90
2023-03-16T07:18:08.001Z,38.30
2023-03-16T07:20:37.218Z,36.30
2023-03-16T07:23:07.700Z,38.50
2023-03-16T07:25:36.975Z,42.40
2023-03-16T07:28:07.312Z,43.30
2023-03-16T07:30:53.240Z,33.50
2023-03-16T07:33:31.591Z,32.10
2023-03-16T07:36:03.831Z,30.20
2023-03-16T07:38:35.464Z,33.50
2023-03-16T07:41:08.257Z,32.20
2023-03-16T07:43:37.047Z,26.70
2023-03-16T07:46:12.977Z,28.60
2023-03-16T07:48:42.476Z,30.50
2023-03-16T07:51:12.475Z,30.20
2023-03-16T07:53:41.549Z,29.20
2023-03-16T07:56:16.872Z,29.50
2023-03-16T07:58:47.617Z,27.40
2023-03-16T08:01:17.115Z,23.00
2023-03-16T08:03:46.084Z,22.50
2023-03-16T08:06:14.971Z,22.90
2023-03-16T08:08:43.914Z,22.70
2023-03-16T08:11:23.077Z,20.40
2023-03-16T08:13:57.349Z,22.90
2023-03-16T08:16:28.585Z,24.90
2023-03-16T08:18:57.839Z,25.20
2023-03-16T08:21:27.871Z,21.60
2023-03-16T08:23:57.985Z,22.10
2023-03-16T08:26:26.840Z,25.40
2023-03-16T08:29:02.610Z,23.90
2023-03-16T08:31:35.247Z,22.00
2023-03-16T08:34:26.208Z,23.40
2023-03-16T08:36:56.004Z,23.10
2023-03-16T08:39:25.516Z,22.40
2023-03-16T08:41:56.520Z,23.70
2023-03-16T08:44:30.841Z,22.50
2023-03-16T08:47:01.001Z,20.60
2023-03-16T08:49:30.929Z,17.60
2023-03-16T08:52:10.473Z,16.20
2023-03-16T08:54:47.134Z,14.50
2023-03-16T08:57:22.185Z,12.20
2023-03-16T08:59:51.080Z,12.30
2023-03-16T09:02:20.165Z,12.80
2023-03-16T09:04:49.978Z,9.70
2023-03-16T09:07:18.764Z,12.60
2023-03-16T09:09:51.035Z,16.80
2023-03-16T09:12:21.788Z,16.20
2023-03-16T09:14:50.583Z,9.80
2023-03-16T09:17:20.272Z,14.20
2023-03-16T09:19:51.635Z,16.60
2023-03-16T09:22:21.789Z,10.20
2023-03-16T09:24:54.215Z,10.00
2023-03-16T09:27:23.043Z,12.80
2023-03-16T09:29:55.282Z,9.50
2023-03-16T09:32:24.096Z,9.80
2023-03-16T09:34:55.853Z,9.20
2023-03-16T09:37:25.594Z,9.20
2023-03-16T09:39:58.012Z,7.60
2023-03-16T09:42:36.377Z,7.60
2023-03-16T09:45:18.322Z,7.10
2023-03-16T09:47:52.238Z,10.50
2023-03-16T09:50:35.213Z,8.50
2023-03-16T09:53:23.670Z,9.70
2023-03-16T09:58:22.870Z,9.70
2023-03-16T10:01:00.564Z,6.40
2023-03-16T10:03:41.075Z,5.50
2023-03-16T10:06:13.704Z,6.00
2023-03-16T10:08:45.931Z,8.10
2023-03-16T10:11:25.576Z,7.30
2023-03-16T10:13:59.595Z,12.10
2023-03-16T10:16:38.173Z,6.60
2023-03-16T10:19:14.176Z,11.10
2023-03-16T10:21:43.264Z,5.10
2023-03-16T10:24:26.600Z,6.30
2023-03-16T10:26:59.599Z,7.30
2023-03-16T10:29:31.805Z,7.60
2023-03-16T10:32:11.588Z,12.20
2023-03-16T10:34:40.606Z,7.70
2023-03-16T10:37:14.130Z,7.10
2023-03-16T10:39:52.084Z,9.50
2023-03-16T10:42:21.795Z,10.30
2023-03-16T10:44:56.780Z,9.00
2023-03-16T10:47:30.639Z,6.50
2023-03-16T10:50:11.000Z,11.00
2023-03-16T10:52:43.514Z,10.70
2023-03-16T10:55:17.362Z,9.50
2023-03-16T10:57:54.521Z,8.30
2023-03-16T11:00:28.380Z,11.10
2023-03-16T11:02:59.144Z,13.60
2023-03-16T11:05:32.398Z,12.10
2023-03-16T11:08:09.513Z,11.40
2023-03-16T11:10:54.689Z,13.10
2023-03-16T11:13:34.440Z,11.90
2023-03-16T11:16:18.838Z,11.40
2023-03-16T11:18:52.926Z,11.80
2023-03-16T11:21:31.510Z,14.30
2023-03-16T11:24:03.302Z,13.60
2023-03-16T11:26:37.862Z,9.90
2023-03-16T11:29:20.225Z,8.60
2023-03-16T11:32:01.811Z,10.70
2023-03-16T11:34:32.529Z,7.40
2023-03-16T11:37:13.806Z,10.30
2023-03-16T11:39:56.976Z,10.20
2023-03-16T11:42:33.714Z,15.30
2023-03-16T11:45:17.722Z,12.30
2023-03-16T11:48:13.178Z,14.30
2023-03-16T11:50:53.766Z,10.90
2023-03-16T11:53:35.579Z,10.80
2023-03-16T11:56:15.871Z,11.90
2023-03-16T11:59:09.005Z,4.30
2023-03-16T12:02:00.716Z,9.30
2023-03-16T12:04:45.928Z,10.40
2023-03-16T12:07:26.605Z,9.60
2023-03-16T12:10:10.227Z,8.00
2023-03-16T12:12:51.000Z,3.30
2023-03-16T12:15:32.445Z,9.20
2023-03-16T12:18:09.409Z,9.60
2023-03-16T12:20:47.462Z,10.40
2023-03-16T12:23:22.876Z,14.20
2023-03-16T12:25:53.353Z,11.20
2023-03-16T12:28:27.136Z,8.20
2023-03-16T12:31:03.012Z,12.40
2023-03-16T12:33:56.362Z,9.70
2023-03-16T12:36:53.062Z,13.00
2023-03-16T12:39:48.457Z,10.90
2023-03-16T12:42:32.974Z,7.70
2023-03-16T12:45:05.865Z,12.70
2023-03-16T12:47:43.877Z,12.50
2023-03-16T12:50:16.757Z,14.10
2023-03-16T12:52:47.942Z,10.40
2023-03-16T12:55:18.830Z,15.60
2023-03-16T12:57:51.080Z,10.30
2023-03-16T13:00:34.124Z,10.80
2023-03-16T13:03:07.950Z,11.00
2023-03-16T13:05:38.147Z,8.40
2023-03-16T13:08:10.790Z,4.40
2023-03-16T13:10:40.565Z,6.80
2023-03-16T13:13:12.418Z,12.60
2023-03-16T13:15:44.638Z,8.80
2023-03-16T13:18:33.684Z,8.80
2023-03-16T13:26:36.876Z,10.60
2023-03-16T13:29:20.021Z,10.00
2023-03-16T13:31:56.539Z,10.60
2023-03-16T13:34:33.558Z,5.60
2023-03-16T13:37:06.274Z,9.90
2023-03-16T13:39:37.950Z,6.10
2023-03-16T13:42:17.329Z,4.60
2023-03-16T13:44:46.951Z,4.00
2023-03-16T13:47:19.929Z,5.20
2023-03-16T13:49:50.782Z,7.30
2023-03-16T13:52:27.130Z,7.90
2023-03-16T13:54:57.791Z,7.50
2023-03-16T13:57:29.782Z,4.60
2023-03-16T14:00:29.602Z,8.60
2023-03-16T14:03:03.773Z,3.40
2023-03-16T14:05:34.707Z,8.90
2023-03-16T14:08:16.920Z,7.60
2023-03-16T14:10:46.880Z,7.70
2023-03-16T14:13:32.481Z,4.90
2023-03-16T14:16:03.124Z,7.00
2023-03-16T14:19:01.629Z,11.30
2023-03-16T14:21:33.588Z,9.70
2023-03-16T14:24:06.703Z,9.30
2023-03-16T14:26:43.855Z,8.50
2023-03-16T14:29:19.733Z,11.40
2023-03-16T14:31:50.263Z,5.90
2023-03-16T14:34:28.789Z,9.80
2023-03-16T14:37:14.237Z,15.10
2023-03-16T14:39:47.225Z,4.90
2023-03-16T14:42:21.592Z,6.80
2023-03-16T14:44:50.877Z,3.90
2023-03-16T14:47:24.069Z,9.00
2023-03-16T14:49:53.245Z,9.50
2023-03-16T14:52:27.416Z,7.90
2023-03-16T14:54:56.248Z,4.30
2023-03-16T14:57:26.133Z,5.70
2023-03-16T14:59:55.512Z,5.80
2023-03-16T15:02:28.461Z,5.20
2023-03-16T15:05:01.429Z,6.00
2023-03-16T15:07:35.288Z,8.50
2023-03-16T15:10:16.564Z,5.40
2023-03-16T15:12:49.991Z,6.20
2023-03-16T15:15:22.428Z,8.90
2023-03-16T15:17:52.546Z,4.60
2023-03-16T15:20:24.949Z,7.50
2023-03-16T15:22:54.110Z,8.10
2023-03-16T15:25:35.764Z,7.90
2023-03-16T15:28:12.221Z,8.50
2023-03-16T15:30:41.454Z,8.60
2023-03-16T15:33:11.128Z,8.80
2023-03-16T15:35:43.519Z,3.50
2023-03-16T15:38:18.872Z,2.80
2023-03-16T15:40:50.484Z,5.70
2023-03-16T15:43:22.298Z,8.90
2023-03-16T15:45:51.756Z,5.30
2023-03-16T15:48:24.064Z,3.20
2023-03-16T15:50:57.149Z,6.30
2023-03-16T15:53:35.291Z,4.00
2023-03-16T15:56:11.039Z,3.30
2023-03-16T15:58:42.372Z,8.10
2023-03-16T16:01:25.483Z,3.30
2023-03-16T16:04:12.565Z,3.30
2023-03-16T16:06:41.930Z,7.00
2023-03-16T16:09:11.015Z,6.60
2023-03-16T16:11:41.059Z,9.50
2023-03-16T16:14:12.614Z,6.00
2023-03-16T16:16:45.200Z,3.00
2023-03-16T16:19:15.307Z,7.10
2023-03-16T16:21:45.892Z,9.80
2023-03-16T16:24:14.985Z,5.70
2023-03-16T16:26:50.988Z,3.40
2023-03-16T16:29:25.200Z,4.80
2023-03-16T16:31:55.663Z,5.20
2023-03-16T16:34:26.752Z,8.70
2023-03-16T16:37:09.257Z,5.30
2023-03-16T16:39:37.978Z,4.30
2023-03-16T16:42:16.888Z,7.90
2023-03-16T16:44:45.764Z,9.60
2023-03-16T16:47:21.811Z,5.90
2023-03-16T16:49:51.532Z,7.50
2023-03-16T16:52:23.323Z,8.80
2023-03-16T16:54:52.824Z,7.10
2023-03-16T16:57:21.795Z,7.10
2023-03-16T16:59:53.434Z,9.60
2023-03-16T17:02:33.448Z,9.20
2023-03-16T17:05:13.062Z,6.60
2023-03-16T17:07:43.280Z,8.60
2023-03-16T17:10:16.839Z,7.80
2023-03-16T17:12:47.313Z,10.00
2023-03-16T17:15:32.186Z,8.10
2023-03-16T17:18:13.581Z,8.10
2023-03-16T17:20:43.183Z,6.80
2023-03-16T17:23:28.872Z,9.00
2023-03-16T17:26:13.204Z,7.30
2023-03-16T17:28:47.062Z,10.70
2023-03-16T17:31:20.425Z,8.20
2023-03-16T17:33:49.895Z,10.60
2023-03-16T17:36:19.352Z,16.30
2023-03-16T17:38:49.551Z,11.90
2023-03-16T17:41:22.813Z,18.50
2023-03-16T17:43:54.910Z,20.80
2023-03-16T17:46:29.423Z,14.30
2023-03-16T17:49:01.312Z,17.40
2023-03-16T17:51:31.824Z,19.50
2023-03-16T17:54:00.971Z,16.80
2023-03-16T17:56:34.799Z,17.90
2023-03-16T17:59:07.750Z,20.50
2023-03-16T18:01:38.562Z,16.50
2023-03-16T18:04:17.095Z,21.00
2023-03-16T18:06:56.169Z,19.80
2023-03-16T18:09:25.429Z,19.60
2023-03-16T18:11:56.718Z,19.50
2023-03-16T18:14:35.321Z,24.30
2023-03-16T18:19:37.181Z,15.10
2023-03-16T18:22:19.053Z,18.00
2023-03-16T18:24:54.836Z,18.90
2023-03-16T18:27:25.185Z,27.50
2023-03-16T18:29:53.771Z,25.50
2023-03-16T18:32:26.671Z,25.70
2023-03-16T18:34:56.914Z,26.10
2023-03-16T18:37:27.308Z,32.50
2023-03-16T18:39:56.341Z,40.10
2023-03-16T18:42:39.169Z,39.20
2023-03-16T18:45:16.417Z,40.10
2023-03-16T18:47:51.454Z,50.20
2023-03-16T18:50:31.051Z,41.50
2023-03-16T18:53:03.834Z,43.30
2023-03-16T18:55:44.343Z,48.50
2023-03-16T18:58:21.801Z,86.30
2023-03-16T19:00:58.662Z,120.10
2023-03-16T19:03:35.615Z,127.40
2023-03-16T19:06:11.347Z,138.30
2023-03-16T19:08:47.899Z,144.30
2023-03-16T19:11:21.443Z,156.70
2023-03-16T19:13:54.625Z,144.10
2023-03-16T19:16:33.894Z,163.80
2023-03-16T19:19:07.937Z,138.50
2023-03-16T19:21:50.735Z,123.70
2023-03-16T19:24:39.594Z,86.30
2023-03-16T19:27:24.892Z,83.00
2023-03-16T19:29:59.761Z,69.50
2023-03-16T19:32:35.750Z,73.50
2023-03-16T19:35:16.149Z,71.00
2023-03-16T19:37:47.065Z,61.10
2023-03-16T19:40:25.707Z,61.70
2023-03-16T19:43:13.667Z,107.50
2023-03-16T19:45:56.560Z,126.50
2023-03-16T19:48:43.619Z,117.70
2023-03-16T19:51:19.677Z,96.70
2023-03-16T19:56:37.801Z,106.10
2023-03-16T19:59:10.856Z,84.90
2023-03-16T20:01:59.962Z,84.80
2023-03-16T20:04:46.852Z,75.70
2023-03-16T20:07:25.562Z,78.50
2023-03-16T20:09:56.035Z,69.60
2023-03-16T20:12:44.333Z,77.50
2023-03-16T20:15:18.032Z,75.00
2023-03-16T20:17:49.069Z,76.60
2023-03-16T20:20:25.714Z,81.70
2023-03-16T20:22:59.234Z,78.40
2023-03-16T20:25:36.343Z,68.60
2023-03-16T20:28:17.911Z,66.70
2023-03-16T20:30:49.146Z,67.50
2023-03-16T20:33:22.115Z,71.70
2023-03-16T20:35:53.528Z,81.80
2023-03-16T20:38:22.921Z,86.50
2023-03-16T20:40:54.296Z,75.80
2023-03-16T20:43:26.437Z,82.40
2023-03-16T20:45:57.623Z,85.20
2023-03-16T20:48:28.999Z,98.30
2023-03-16T20:50:59.428Z,104.10
2023-03-16T20:53:28.011Z,116.50
2023-03-16T20:55:57.336Z,107.20
2023-03-16T20:58:27.821Z,98.50
2023-03-16T21:00:57.725Z,117.80
2023-03-16T21:03:28.714Z,106.10
2023-03-16T21:05:59.837Z,139.60
2023-03-16T21:08:28.723Z,153.10
2023-03-16T21:10:59.354Z,154.90
2023-03-16T21:13:32.014Z,157.20
2023-03-16T21:16:07.382Z,153.80
2023-03-16T21:18:37.514Z,156.10
2023-03-16T21:21:15.117Z,149.40
2023-03-16T21:23:45.542Z,168.40
2023-03-16T21:26:18.173Z,141.10
2023-03-16T21:28:56.849Z,120.70
2023-03-16T21:31:27.478Z,134.40
2023-03-16T21:34:00.084Z,106.70
2023-03-16T21:36:30.172Z,105.00
2023-03-16T21:38:58.805Z,91.10
2023-03-16T21:41:30.127Z,98.80
2023-03-16T21:43:58.685Z,107.70
2023-03-16T21:46:31.626Z,103.80
2023-03-16T21:49:03.681Z,101.90
2023-03-16T21:51:35.606Z,101.60
2023-03-16T21:54:09.105Z,100.30
2023-03-16T21:56:38.406Z,95.50
2023-03-16T21:59:08.144Z,96.90
2023-03-16T22:01:50.583Z,90.10
2023-03-16T22:04:27.569Z,65.30
2023-03-16T22:06:56.646Z,80.80
2023-03-16T22:09:29.281Z,105.90
2023-03-16T22:11:58.127Z,109.20
2023-03-16T22:14:26.935Z,112.90
2023-03-16T22:16:58.359Z,107.50
2023-03-16T22:19:27.080Z,106.40
2023-03-16T22:21:56.798Z,111.20
2023-03-16T22:24:27.680Z,100.80
2023-03-16T22:26:59.627Z,109.80
2023-03-16T22:29:30.682Z,105.70
2023-03-16T22:32:03.655Z,100.40
2023-03-16T22:34:46.431Z,101.20
2023-03-16T22:37:20.804Z,88.90
2023-03-16T22:39:49.920Z,100.90
2023-03-16T22:42:27.553Z,93.60
2023-03-16T22:44:56.603Z,110.20
2023-03-16T22:47:27.703Z,87.60
2023-03-16T22:49:56.266Z,90.30
2023-03-16T22:52:29.974Z,89.60
2023-03-16T22:55:00.396Z,93.80
2023-03-16T22:57:30.516Z,85.20
2023-03-16T23:00:06.492Z,81.80
2023-03-16T23:02:35.523Z,84.90
2023-03-16T23:05:19.005Z,73.10
2023-03-16T23:07:48.720Z,60.40
2023-03-16T23:10:22.705Z,72.30
2023-03-16T23:12:52.907Z,68.10
2023-03-16T23:15:24.670Z,67.10
2023-03-16T23:17:53.867Z,77.60
2023-03-16T23:20:26.452Z,67.80
2023-03-16T23:22:55.230Z,74.20
2023-03-16T23:25:24.636Z,62.30
2023-03-16T23:28:03.560Z,79.50
2023-03-16T23:30:33.225Z,68.50
2023-03-16T23:33:02.273Z,69.10
2023-03-16T23:35:31.686Z,61.90
2023-03-16T23:38:00.462Z,71.50
2023-03-16T23:40:30.169Z,73.60
2023-03-16T23:43:01.936Z,83.20
2023-03-16T23:45:33.903Z,74.10
2023-03-16T23:48:06.102Z,66.80
2023-03-16T23:50:37.876Z,70.20
2023-03-16T23:53:12.288Z,71.10
2023-03-16T23:55:42.132Z,62.50
2023-03-16T23:58:12.623Z,69.10
